Orbital elements of FENGYUN 1C DEB
| Launched | 9 May 1999 |
| Flight ended | – |
| Launch site | Taiyuan Space Center, PRC |
| Owner | People's Republic of China |
| NORAD ID | 32192 |
| Date fetched |
Epoch osculation |
Inc. [°] |
Ecc. | RA asc node [hr] |
Arg Peri. [°] |
Mean anom [°] |
Mean motion [rev/day] |
Abs. mag |
| Date fetched |
Epoch osculation |
Inc. [°] |
Ecc. | RA asc node [hr] |
Arg Peri. [°] |
Mean anom [°] |
Mean motion [rev/day] |
Abs. mag |
| 2026 May 03 17:57 | 2026 Apr 30 14:17:12 | 98.6375 | 0.01821 | 23.0136 | 145.5714 | 215.7398 | 13.82624 | – |
| 2026 May 02 17:57 | 2026 Apr 30 14:17:12 | 98.6375 | 0.01821 | 23.0136 | 145.5714 | 215.7398 | 13.82624 | – |
| 2026 May 01 17:56 | 2026 Apr 30 14:17:12 | 98.6375 | 0.01821 | 23.0136 | 145.5714 | 215.7398 | 13.82624 | – |
| 2026 Apr 30 17:56 | 2026 Apr 30 14:17:12 | 98.6375 | 0.01821 | 23.0136 | 145.5714 | 215.7398 | 13.82624 | – |
| 2026 Apr 29 17:57 | 2026 Apr 24 01:58:25 | 98.6382 | 0.01817 | 22.6151 | 163.2359 | 215.7398 | 13.82624 | – |
| 2026 Apr 28 17:56 | 2026 Apr 24 01:58:25 | 98.6382 | 0.01817 | 22.6151 | 163.2359 | 215.7398 | 13.82624 | – |
| 2026 Apr 27 17:58 | 2026 Apr 24 01:58:25 | 98.6382 | 0.01817 | 22.6151 | 163.2359 | 215.7398 | 13.82624 | – |
| 2026 Apr 26 17:58 | 2026 Apr 24 01:58:25 | 98.6382 | 0.01817 | 22.6151 | 163.2359 | 215.7398 | 13.82624 | – |
| 2026 Apr 25 17:58 | 2026 Apr 24 01:58:25 | 98.6382 | 0.01817 | 22.6151 | 163.2359 | 215.7398 | 13.82624 | – |
| 2026 Apr 24 17:59 | 2026 Apr 24 01:58:25 | 98.6382 | 0.01817 | 22.6151 | 163.2359 | 215.7398 | 13.82624 | – |
| 2026 Apr 23 17:57 | 2026 Apr 18 01:49:03 | 98.6391 | 0.01814 | 22.2475 | 179.5519 | 215.7398 | 13.82624 | – |
| 2026 Apr 22 17:57 | 2026 Apr 18 01:49:03 | 98.6391 | 0.01814 | 22.2475 | 179.5519 | 215.7398 | 13.82624 | – |
| 2026 Apr 21 17:57 | 2026 Apr 18 01:49:03 | 98.6391 | 0.01814 | 22.2475 | 179.5519 | 215.7398 | 13.82624 | – |
| 2026 Apr 20 17:57 | 2026 Apr 18 01:49:03 | 98.6391 | 0.01814 | 22.2475 | 179.5519 | 215.7398 | 13.82624 | – |
| 2026 Apr 19 17:58 | 2026 Apr 18 01:49:03 | 98.6391 | 0.01814 | 22.2475 | 179.5519 | 215.7398 | 13.82624 | – |
| 2026 Apr 18 17:56 | 2026 Apr 12 20:45:59 | 98.6400 | 0.01811 | 21.9286 | 193.7275 | 215.7398 | 13.82624 | – |
| 2026 Apr 16 17:57 | 2026 Apr 12 20:45:59 | 98.6400 | 0.01811 | 21.9286 | 193.7275 | 215.7398 | 13.82624 | – |
| 2026 Apr 14 17:57 | 2026 Apr 12 20:45:59 | 98.6400 | 0.01811 | 21.9286 | 193.7275 | 215.7398 | 13.82624 | – |
| 2026 Apr 13 17:57 | 2026 Apr 12 20:45:59 | 98.6400 | 0.01811 | 21.9286 | 193.7275 | 215.7398 | 13.82624 | – |
| 2026 Apr 12 17:57 | 2026 Apr 08 02:08:10 | 98.6407 | 0.01809 | 21.6363 | 206.7430 | 215.7398 | 13.82624 | – |
| 2026 Apr 11 17:57 | 2026 Apr 08 02:08:10 | 98.6407 | 0.01809 | 21.6363 | 206.7430 | 215.7398 | 13.82624 | – |
| 2026 Apr 10 17:58 | 2026 Apr 08 02:08:10 | 98.6407 | 0.01809 | 21.6363 | 206.7430 | 215.7398 | 13.82624 | – |
| 2026 Apr 09 18:01 | 2026 Apr 08 02:08:10 | 98.6407 | 0.01809 | 21.6363 | 206.7430 | 215.7398 | 13.82624 | – |
| 2026 Apr 08 17:57 | 2026 Apr 08 02:08:10 | 98.6407 | 0.01809 | 21.6363 | 206.7430 | 215.7398 | 13.82624 | – |
| 2026 Apr 07 17:57 | 2026 Mar 31 13:30:23 | 98.6423 | 0.01807 | 21.1756 | 227.2800 | 215.7398 | 13.82624 | – |
| 2026 Apr 06 17:57 | 2026 Mar 31 13:30:23 | 98.6423 | 0.01807 | 21.1756 | 227.2800 | 215.7398 | 13.82624 | – |